Time;durP1;ratioP1;P1;durP2;ratioP2;P2;SDS_P1;SDS_P2;PMS_P1;PMS_P2;Temp;Humidity;BMP_temperature;BMP_pressure;BME280_temperature;BME280_humidity;BME280_pressure;Samples;Min_cycle;Max_cycle;Signal;HPM_P1;HPM_P2
2023/09/29 00:01:37;;;;;;;1.92;1.73;;;24.20;61.00;;;;;;5967805;23;89877;-86
2023/09/29 00:04:04;;;;;;;2.15;1.60;;;24.20;60.80;;;;;;5970323;23;87817;-86
2023/09/29 00:06:32;;;;;;;2.95;1.95;;;24.20;60.80;;;;;;5968324;23;88124;-87
2023/09/29 00:08:59;;;;;;;2.45;2.03;;;24.20;60.80;;;;;;5967320;23;87210;-86
2023/09/29 00:11:26;;;;;;;3.58;2.42;;;24.10;60.80;;;;;;5967748;23;87281;-87
2023/09/29 00:13:51;;;;;;;2.13;1.83;;;24.10;60.90;;;;;;5969336;23;88489;-87
2023/09/29 00:16:17;;;;;;;2.05;1.63;;;24.10;60.80;;;;;;5968709;23;87164;-87
2023/09/29 00:18:42;;;;;;;2.70;1.60;;;24.10;61.10;;;;;;5966754;23;87277;-86
2023/09/29 00:21:08;;;;;;;2.33;1.58;;;24.10;61.60;;;;;;5968631;23;87357;-86
2023/09/29 00:23:35;;;;;;;2.53;2.10;;;24.10;61.60;;;;;;5965699;23;90059;-86
2023/09/29 00:26:01;;;;;;;2.95;2.00;;;24.10;61.60;;;;;;5969331;23;88565;-87
2023/09/29 00:28:27;;;;;;;3.33;1.90;;;24.10;61.40;;;;;;5968856;23;87316;-86
2023/09/29 00:30:58;;;;;;;3.15;1.85;;;24.10;61.60;;;;;;5968642;23;86861;-87
2023/09/29 00:33:23;;;;;;;2.45;1.63;;;24.10;61.60;;;;;;5969220;23;88811;-86
2023/09/29 00:35:49;;;;;;;2.33;1.63;;;24.10;61.50;;;;;;5966540;23;87779;-86
2023/09/29 00:38:15;;;;;;;2.33;1.80;;;24.00;61.30;;;;;;5968514;23;87464;-87
2023/09/29 00:40:41;;;;;;;2.53;1.75;;;24.00;61.30;;;;;;5959103;23;86628;-86
2023/09/29 00:43:08;;;;;;;4.32;2.30;;;24.00;61.30;;;;;;5968202;23;89015;-88
2023/09/29 00:45:35;;;;;;;2.92;1.42;;;24.00;61.50;;;;;;5967800;23;87759;-86
2023/09/29 00:48:07;;;;;;;2.38;1.80;;;24.00;61.50;;;;;;5970441;23;88760;-87
2023/09/29 00:50:34;;;;;;;2.85;1.75;;;24.00;61.50;;;;;;5971507;23;87619;-87
2023/09/29 00:53:09;;;;;;;1.67;1.35;;;24.00;61.40;;;;;;5956884;23;91180;-87
2023/09/29 00:55:36;;;;;;;2.13;1.52;;;24.00;61.60;;;;;;5981717;23;88354;-85
2023/09/29 00:58:04;;;;;;;1.77;1.52;;;24.00;61.80;;;;;;5967188;23;87577;-85
2023/09/29 01:00:31;;;;;;;2.70;1.75;;;24.00;61.70;;;;;;5967686;23;87368;-87
2023/09/29 01:03:12;;;;;;;2.97;1.75;;;24.00;61.70;;;;;;5968139;23;88280;-86
2023/09/29 01:05:49;;;;;;;2.58;1.85;;;24.00;61.80;;;;;;5969445;23;87122;-88
2023/09/29 01:08:22;;;;;;;2.10;1.63;;;24.00;61.80;;;;;;5969290;23;87783;-86
2023/09/29 01:10:48;;;;;;;2.65;1.92;;;24.00;61.60;;;;;;5968249;23;87066;-86
2023/09/29 01:13:15;;;;;;;3.55;2.20;;;23.90;61.50;;;;;;5969809;23;88625;-86
2023/09/29 01:15:41;;;;;;;2.00;1.73;;;24.00;61.60;;;;;;5962536;23;88886;-87
2023/09/29 01:18:07;;;;;;;3.47;1.77;;;23.90;61.60;;;;;;5962441;23;87562;-86
2023/09/29 01:20:34;;;;;;;1.92;1.50;;;23.90;61.60;;;;;;5967884;23;87547;-86
2023/09/29 01:23:01;;;;;;;2.17;1.90;;;23.90;61.70;;;;;;5966659;23;89410;-86
2023/09/29 01:25:30;;;;;;;2.55;1.83;;;23.90;61.50;;;;;;5968834;23;88813;-86
2023/09/29 01:27:58;;;;;;;2.70;1.30;;;23.90;61.60;;;;;;5970512;23;87512;-86
2023/09/29 01:30:27;;;;;;;3.47;2.30;;;23.90;61.70;;;;;;5968966;23;86571;-86
2023/09/29 01:32:57;;;;;;;1.70;1.60;;;23.90;61.60;;;;;;5967851;23;88296;-86
2023/09/29 01:35:27;;;;;;;2.63;1.60;;;23.90;61.70;;;;;;5968641;23;87658;-86
2023/09/29 01:37:54;;;;;;;2.35;1.55;;;23.90;61.80;;;;;;5967169;23;88252;-86
2023/09/29 01:40:21;;;;;;;1.55;1.45;;;23.90;61.60;;;;;;5969802;23;87987;-86
2023/09/29 01:42:47;;;;;;;2.70;1.45;;;23.90;61.70;;;;;;5962655;23;88431;-86
2023/09/29 01:45:16;;;;;;;1.88;1.60;;;23.90;61.60;;;;;;5965209;23;87853;-87
2023/09/29 01:47:46;;;;;;;2.45;1.70;;;23.90;61.70;;;;;;5970420;23;87254;-86
2023/09/29 01:50:15;;;;;;;2.42;1.70;;;23.90;61.80;;;;;;5957278;23;87251;-85
2023/09/29 01:52:41;;;;;;;2.00;1.57;;;23.90;61.80;;;;;;5980202;23;88320;-87
2023/09/29 01:55:12;;;;;;;1.60;1.35;;;23.90;61.80;;;;;;5959763;23;88217;-86
2023/09/29 01:57:44;;;;;;;2.30;1.42;;;23.90;61.90;;;;;;5954289;23;87342;-85
2023/09/29 02:00:20;;;;;;;2.13;1.60;;;23.80;61.50;;;;;;5970577;23;87297;-86
2023/09/29 02:02:49;;;;;;;1.90;1.80;;;23.90;61.60;;;;;;5955368;23;91154;-87
2023/09/29 02:05:16;;;;;;;3.17;1.77;;;23.80;61.60;;;;;;5969229;23;88765;-87
2023/09/29 02:07:43;;;;;;;1.58;1.42;;;23.90;61.90;;;;;;5970998;23;87295;-86
2023/09/29 02:10:09;;;;;;;2.33;1.70;;;23.90;61.70;;;;;;5970197;23;87661;-85
2023/09/29 02:12:46;;;;;;;2.00;1.45;;;23.80;61.70;;;;;;5971361;23;88530;-86
2023/09/29 02:15:15;;;;;;;2.28;1.70;;;23.80;61.70;;;;;;5967091;23;89435;-86
2023/09/29 02:17:41;;;;;;;;;;;23.80;61.70;;;;;;5971967;23;87048;-86
2023/09/29 02:20:29;;;;;;;2.38;1.67;;;23.80;61.10;;;;;;5972331;23;86583;-87
2023/09/29 02:22:55;;;;;;;1.90;1.50;;;23.80;61.00;;;;;;5957245;23;87242;-89
2023/09/29 02:25:25;;;;;;;2.17;1.70;;;23.80;61.10;;;;;;5966613;23;88495;-86
2023/09/29 02:27:52;;;;;;;2.28;1.38;;;23.80;60.90;;;;;;5969457;23;88204;-87
2023/09/29 02:30:17;;;;;;;1.67;1.48;;;23.80;61.10;;;;;;5969142;23;87116;-86
2023/09/29 02:32:43;;;;;;;1.73;1.50;;;23.80;61.20;;;;;;5969799;23;88354;-85
2023/09/29 02:35:09;;;;;;;1.90;1.67;;;23.80;61.20;;;;;;5969180;23;87466;-87
2023/09/29 02:37:36;;;;;;;1.95;1.73;;;23.80;61.10;;;;;;5969254;23;87148;-86
2023/09/29 02:40:06;;;;;;;2.67;1.60;;;23.80;61.20;;;;;;5971255;23;87669;-86
2023/09/29 02:42:32;;;;;;;2.55;1.83;;;23.80;61.20;;;;;;5967132;23;90690;-87
2023/09/29 02:44:58;;;;;;;2.17;1.40;;;23.80;61.20;;;;;;5968947;23;86892;-85
2023/09/29 02:47:23;;;;;;;2.80;1.70;;;23.80;61.20;;;;;;5956715;23;88553;-87
2023/09/29 02:49:49;;;;;;;1.52;1.30;;;23.80;61.20;;;;;;5972131;23;86899;-87
2023/09/29 02:52:15;;;;;;;1.98;1.45;;;23.70;61.10;;;;;;5965598;23;88470;-87
2023/09/29 02:54:43;;;;;;;2.08;1.42;;;23.70;61.30;;;;;;5976418;23;89402;-87
2023/09/29 02:57:14;;;;;;;1.80;1.60;;;23.70;61.30;;;;;;5969666;23;87407;-87
2023/09/29 02:59:39;;;;;;;1.60;1.50;;;23.70;61.30;;;;;;5953533;23;89158;-87
2023/09/29 03:02:05;;;;;;;1.40;1.13;;;23.80;61.40;;;;;;5969949;23;87588;-87
2023/09/29 03:04:31;;;;;;;2.58;1.67;;;23.70;61.20;;;;;;5969933;23;87630;-87
2023/09/29 03:06:56;;;;;;;1.52;1.42;;;23.70;61.10;;;;;;5970511;23;88442;-87
2023/09/29 03:09:22;;;;;;;1.92;1.70;;;23.70;61.20;;;;;;5969836;23;87260;-86
2023/09/29 03:11:49;;;;;;;2.17;1.58;;;23.70;61.20;;;;;;5969018;23;89005;-87
2023/09/29 03:14:16;;;;;;;1.60;1.50;;;23.70;61.20;;;;;;5969658;23;87874;-86
2023/09/29 03:16:42;;;;;;;1.45;1.30;;;23.70;61.30;;;;;;5968549;23;87886;-85
2023/09/29 03:19:08;;;;;;;2.00;1.70;;;23.70;62.00;;;;;;5957316;23;88324;-86
2023/09/29 03:21:34;;;;;;;2.08;1.85;;;23.70;61.30;;;;;;5969082;23;88198;-85
2023/09/29 03:24:02;;;;;;;1.50;1.40;;;23.70;61.30;;;;;;5968385;23;87810;-86
2023/09/29 03:26:31;;;;;;;1.92;1.50;;;23.70;61.10;;;;;;5968446;23;87811;-87
2023/09/29 03:28:59;;;;;;;1.42;1.33;;;23.70;61.20;;;;;;5969082;23;88963;-86
2023/09/29 03:31:35;;;;;;;2.15;1.60;;;23.70;61.20;;;;;;5969221;23;87752;-86
2023/09/29 03:34:02;;;;;;;2.78;1.60;;;23.70;61.10;;;;;;5971131;23;87113;-86
2023/09/29 03:36:29;;;;;;;1.63;1.50;;;23.70;61.10;;;;;;5968661;23;87694;-87
2023/09/29 03:38:54;;;;;;;2.25;1.98;;;23.70;61.30;;;;;;5970593;23;87531;-87
2023/09/29 03:41:23;;;;;;;2.03;1.52;;;23.70;61.20;;;;;;5968526;23;89165;-86
2023/09/29 03:43:52;;;;;;;1.73;1.57;;;23.70;61.20;;;;;;5968850;23;88823;-86
2023/09/29 03:46:21;;;;;;;1.50;1.40;;;23.70;61.20;;;;;;5966738;23;88034;-85
2023/09/29 03:48:47;;;;;;;1.88;1.52;;;23.70;61.20;;;;;;5987596;23;90432;-87
2023/09/29 03:51:25;;;;;;;1.92;1.58;;;23.70;61.40;;;;;;5993145;23;87278;-86
2023/09/29 03:53:53;;;;;;;1.63;1.50;;;23.70;61.30;;;;;;5979993;23;87854;-86
2023/09/29 03:56:22;;;;;;;2.08;1.88;;;23.70;61.10;;;;;;5968855;23;87341;-86
2023/09/29 03:58:55;;;;;;;2.00;1.60;;;23.70;61.30;;;;;;5967588;23;88259;-86
2023/09/29 04:01:22;;;;;;;1.70;1.33;;;23.70;61.30;;;;;;5968517;23;87711;-86
2023/09/29 04:03:48;;;;;;;1.40;1.30;;;23.70;61.30;;;;;;5970593;23;87710;-86
2023/09/29 04:06:14;;;;;;;1.60;1.45;;;23.70;61.30;;;;;;5967793;23;88605;-86
2023/09/29 04:08:40;;;;;;;1.70;1.58;;;23.70;61.40;;;;;;5966890;23;89648;-86
2023/09/29 04:11:07;;;;;;;2.17;1.70;;;23.70;61.30;;;;;;5968308;23;87963;-87
2023/09/29 04:13:33;;;;;;;1.77;1.67;;;23.70;61.30;;;;;;5956881;23;87483;-87
2023/09/29 04:16:03;;;;;;;1.58;1.48;;;23.70;61.40;;;;;;5969063;23;87650;-86
2023/09/29 04:18:29;;;;;;;1.65;1.48;;;23.70;61.30;;;;;;5968966;23;87380;-88
2023/09/29 04:20:55;;;;;;;1.65;1.55;;;23.70;61.40;;;;;;5969308;23;87992;-87
2023/09/29 04:23:20;;;;;;;2.42;1.42;;;23.70;61.60;;;;;;5970200;23;87611;-87
2023/09/29 04:25:46;;;;;;;1.52;1.40;;;23.70;61.30;;;;;;5969972;23;87744;-86
2023/09/29 04:28:12;;;;;;;1.80;1.48;;;23.70;61.30;;;;;;5970677;23;86900;-86
2023/09/29 04:30:38;;;;;;;2.55;1.55;;;23.60;61.40;;;;;;5967895;23;88880;-86
2023/09/29 04:33:04;;;;;;;1.70;1.23;;;23.60;61.40;;;;;;5969579;23;88385;-86
2023/09/29 04:35:30;;;;;;;1.98;1.67;;;23.60;61.30;;;;;;5969004;23;87999;-84
2023/09/29 04:37:55;;;;;;;1.48;1.35;;;23.60;61.40;;;;;;5967703;23;89730;-87
2023/09/29 04:40:31;;;;;;;1.48;1.38;;;23.60;61.50;;;;;;5955289;23;87960;-87
2023/09/29 04:42:57;;;;;;;1.65;1.55;;;23.60;61.40;;;;;;5973751;23;87873;-87
2023/09/29 04:45:22;;;;;;;2.15;1.83;;;23.60;61.40;;;;;;5969931;23;88089;-85
2023/09/29 04:47:48;;;;;;;3.33;1.70;;;23.60;61.80;;;;;;5970475;23;86586;-86
2023/09/29 04:50:14;;;;;;;2.28;1.77;;;23.60;61.90;;;;;;5971155;23;87773;-87
2023/09/29 04:52:39;;;;;;;2.08;1.70;;;23.60;62.10;;;;;;5962220;23;87484;-87
2023/09/29 04:55:05;;;;;;;2.03;1.40;;;23.60;62.30;;;;;;5988449;23;88509;-87
2023/09/29 04:57:31;;;;;;;5.25;1.77;;;23.60;62.30;;;;;;5970816;23;87525;-88
2023/09/29 04:59:57;;;;;;;2.33;1.85;;;23.60;62.20;;;;;;5958538;23;86973;-87
2023/09/29 05:02:24;;;;;;;3.30;1.60;;;23.60;62.40;;;;;;5970278;23;87645;-87
2023/09/29 05:04:50;;;;;;;2.00;1.80;;;23.60;62.50;;;;;;5966826;23;87711;-87
2023/09/29 05:07:15;;;;;;;2.00;1.77;;;23.60;62.50;;;;;;5958626;23;87233;-87
2023/09/29 05:09:41;;;;;;;1.60;1.50;;;23.60;62.40;;;;;;5968562;23;87587;-86
2023/09/29 05:12:07;;;;;;;2.03;1.70;;;23.60;62.30;;;;;;5969842;23;88646;-86
2023/09/29 05:14:33;;;;;;;1.65;1.50;;;23.60;62.30;;;;;;5967603;23;87522;-87
2023/09/29 05:16:58;;;;;;;1.52;1.38;;;23.60;62.40;;;;;;5975560;23;94447;-87
2023/09/29 05:19:24;;;;;;;1.73;1.50;;;23.60;62.50;;;;;;5993808;23;91842;-87
2023/09/29 05:21:50;;;;;;;2.33;1.75;;;23.60;62.40;;;;;;5999181;23;89325;-87
2023/09/29 05:24:16;;;;;;;1.60;1.50;;;23.60;62.50;;;;;;5995864;23;88095;-87
2023/09/29 05:26:44;;;;;;;3.13;1.92;;;23.60;62.40;;;;;;5996907;23;88203;-86
2023/09/29 05:29:19;;;;;;;1.60;1.33;;;23.60;62.60;;;;;;5997692;23;88077;-88
2023/09/29 05:31:45;;;;;;;1.77;1.40;;;23.60;62.40;;;;;;5998360;23;87433;-87
2023/09/29 05:34:10;;;;;;;1.60;1.20;;;23.60;62.60;;;;;;5998045;23;87497;-87
2023/09/29 05:36:36;;;;;;;3.35;1.88;;;23.60;62.50;;;;;;5999489;23;87565;-86
2023/09/29 05:39:03;;;;;;;2.63;1.38;;;23.60;62.30;;;;;;5997110;23;90121;-88
2023/09/29 05:41:29;;;;;;;1.67;1.30;;;23.60;62.40;;;;;;5995669;23;87814;-87
2023/09/29 05:43:55;;;;;;;1.70;1.40;;;23.60;62.40;;;;;;5997201;23;88636;-86
2023/09/29 05:46:21;;;;;;;2.20;1.60;;;23.60;62.30;;;;;;5997831;23;87354;-88
2023/09/29 05:48:46;;;;;;;1.40;1.30;;;23.60;62.60;;;;;;5997293;23;87536;-87
2023/09/29 05:51:12;;;;;;;2.95;1.52;;;23.60;62.80;;;;;;5998377;23;87000;-87
2023/09/29 05:53:37;;;;;;;2.47;1.40;;;23.60;62.80;;;;;;5971185;23;87708;-87
2023/09/29 05:56:09;;;;;;;2.63;1.80;;;23.60;62.60;;;;;;5991433;23;87834;-88
2023/09/29 05:58:38;;;;;;;1.60;1.48;;;23.60;62.70;;;;;;5995547;23;89202;-87
2023/09/29 06:01:14;;;;;;;2.08;1.30;;;23.60;62.60;;;;;;5998823;23;87785;-87
2023/09/29 06:03:40;;;;;;;2.83;1.67;;;23.60;62.50;;;;;;5998332;23;87757;-87
2023/09/29 06:06:07;;;;;;;1.92;1.60;;;23.60;62.50;;;;;;5997275;23;87092;-87
2023/09/29 06:08:33;;;;;;;2.58;1.50;;;23.60;62.40;;;;;;5994232;23;91753;-87
2023/09/29 06:10:59;;;;;;;1.48;1.38;;;23.60;62.30;;;;;;5998076;23;88796;-87
2023/09/29 06:13:24;;;;;;;2.05;1.63;;;23.60;62.40;;;;;;5986493;23;87125;-87
2023/09/29 06:15:50;;;;;;;2.53;1.40;;;23.60;62.50;;;;;;5997699;23;87564;-87
2023/09/29 06:18:16;;;;;;;1.73;1.30;;;23.60;62.60;;;;;;5996833;23;87473;-87
2023/09/29 06:20:41;;;;;;;1.60;1.40;;;23.60;62.40;;;;;;5996987;23;88004;-87
2023/09/29 06:23:07;;;;;;;1.70;1.30;;;23.60;62.40;;;;;;5997830;23;87508;-87
2023/09/29 06:25:33;;;;;;;1.73;1.25;;;23.60;62.30;;;;;;5996639;23;87170;-86
2023/09/29 06:27:59;;;;;;;1.65;1.50;;;23.60;62.30;;;;;;5998313;23;87727;-88
2023/09/29 06:30:25;;;;;;;2.00;1.70;;;23.50;62.30;;;;;;5997966;23;87638;-87
2023/09/29 06:32:50;;;;;;;1.70;1.60;;;23.60;62.30;;;;;;5998260;23;88049;-91
2023/09/29 06:35:16;;;;;;;2.70;1.70;;;23.50;62.20;;;;;;5985175;23;89187;-87
2023/09/29 06:37:42;;;;;;;3.90;1.30;;;23.50;61.90;;;;;;5997828;23;89107;-89
2023/09/29 06:40:11;;;;;;;2.22;1.50;;;23.60;62.00;;;;;;5999656;23;90158;-87
2023/09/29 06:42:47;;;;;;;1.73;1.30;;;23.60;61.90;;;;;;5998323;23;87634;-87
2023/09/29 06:45:12;;;;;;;4.85;1.83;;;23.60;62.10;;;;;;5997668;23;87854;-86
2023/09/29 06:47:38;;;;;;;5.50;2.50;;;23.50;62.00;;;;;;5998134;23;89032;-86
2023/09/29 06:50:04;;;;;;;5.88;2.03;;;23.60;62.10;;;;;;6007395;23;86593;-86
2023/09/29 06:52:30;;;;;;;4.53;1.83;;;23.50;61.80;;;;;;5998309;23;87583;-86
2023/09/29 06:54:55;;;;;;;7.43;2.50;;;23.50;62.40;;;;;;5996862;23;86986;-87
2023/09/29 06:57:22;;;;;;;4.15;1.70;;;23.50;62.10;;;;;;6006544;23;88767;-86
2023/09/29 06:59:48;;;;;;;3.60;2.38;;;23.60;62.10;;;;;;6019496;23;92134;-85
2023/09/29 07:02:13;;;;;;;6.50;2.65;;;23.60;62.20;;;;;;5997220;23;89775;-85
2023/09/29 07:04:39;;;;;;;4.00;1.90;;;23.60;62.10;;;;;;5998076;23;87701;-85
2023/09/29 07:07:05;;;;;;;8.23;3.20;;;23.60;62.50;;;;;;5998654;23;87598;-85
2023/09/29 07:09:30;;;;;;;8.68;2.42;;;23.60;62.30;;;;;;5986982;23;87800;-86
2023/09/29 07:11:57;;;;;;;13.05;3.38;;;23.60;62.50;;;;;;5998003;23;87580;-86
2023/09/29 07:14:22;;;;;;;9.10;2.88;;;23.60;62.70;;;;;;6000074;23;87242;-87
2023/09/29 07:16:52;;;;;;;12.38;3.20;;;23.60;62.30;;;;;;5995864;23;87650;-84
2023/09/29 07:19:18;;;;;;;10.25;3.17;;;23.60;62.40;;;;;;5998443;23;87322;-86
2023/09/29 07:21:44;;;;;;;12.13;3.33;;;23.60;62.80;;;;;;5995052;23;88497;-85
2023/09/29 07:24:20;;;;;;;11.98;3.33;;;23.60;62.90;;;;;;5995329;23;87442;-85
2023/09/29 07:26:46;;;;;;;9.68;3.72;;;23.70;63.10;;;;;;5996855;23;87548;-85
2023/09/29 07:29:11;;;;;;;15.18;3.88;;;23.70;63.20;;;;;;5995991;23;88164;-88
2023/09/29 07:31:38;;;;;;;9.07;3.40;;;23.70;63.10;;;;;;5993868;23;87365;-85
2023/09/29 07:34:04;;;;;;;12.15;3.47;;;23.70;63.50;;;;;;5992344;23;88908;-86
2023/09/29 07:36:33;;;;;;;12.27;3.30;;;23.70;63.20;;;;;;5996362;23;87761;-86
2023/09/29 07:38:58;;;;;;;9.65;3.45;;;23.70;63.10;;;;;;5997943;23;88331;-86
2023/09/29 07:41:24;;;;;;;11.60;3.95;;;23.70;63.30;;;;;;5995500;23;87954;-87
2023/09/29 07:43:51;;;;;;;14.02;3.67;;;23.70;63.30;;;;;;5995886;23;87082;-87
2023/09/29 07:46:16;;;;;;;15.57;3.97;;;23.70;63.30;;;;;;5993811;23;88609;-87
2023/09/29 07:48:42;;;;;;;16.70;4.00;;;23.70;63.10;;;;;;5995279;23;88084;-87
2023/09/29 07:51:07;;;;;;;13.05;3.95;;;23.70;63.50;;;;;;5995755;23;87615;-86
2023/09/29 07:53:33;;;;;;;11.75;3.58;;;23.70;63.20;;;;;;5994804;23;87918;-87
2023/09/29 07:55:59;;;;;;;7.90;2.47;;;23.70;63.20;;;;;;5995760;23;88526;-86
2023/09/29 07:58:25;;;;;;;6.82;2.80;;;23.70;63.20;;;;;;5994601;23;88172;-85
2023/09/29 08:00:50;;;;;;;10.48;2.88;;;23.70;63.10;;;;;;5995892;23;87782;-86
2023/09/29 08:03:16;;;;;;;10.55;3.20;;;23.70;63.20;;;;;;5979064;23;86792;-85
2023/09/29 08:05:41;;;;;;;8.48;3.20;;;23.70;63.10;;;;;;5993057;23;89051;-85
2023/09/29 08:08:13;;;;;;;6.75;3.17;;;23.70;63.10;;;;;;5995061;23;87494;-85
2023/09/29 08:10:38;;;;;;;9.02;3.25;;;23.70;62.70;;;;;;5994099;23;88142;-87
2023/09/29 08:13:04;;;;;;;7.55;2.67;;;23.70;63.00;;;;;;5996644;23;87688;-86
2023/09/29 08:15:30;;;;;;;8.05;2.67;;;23.70;62.70;;;;;;5993935;23;88534;-85
2023/09/29 08:17:55;;;;;;;7.65;2.70;;;23.70;62.40;;;;;;5993686;23;87598;-85
2023/09/29 08:20:22;;;;;;;5.28;2.00;;;23.70;62.30;;;;;;5994585;23;87379;-85
2023/09/29 08:22:47;;;;;;;6.80;2.00;;;23.80;62.70;;;;;;5994444;23;87670;-85
2023/09/29 08:25:13;;;;;;;5.15;2.20;;;23.70;62.50;;;;;;5995967;23;88783;-85
2023/09/29 08:27:39;;;;;;;4.57;1.95;;;23.80;62.50;;;;;;5993753;23;90855;-86
2023/09/29 08:30:06;;;;;;;5.18;2.28;;;23.80;62.70;;;;;;5993241;23;87526;-86
2023/09/29 08:32:32;;;;;;;6.07;2.42;;;23.80;62.80;;;;;;5993222;23;89621;-86
2023/09/29 08:34:58;;;;;;;5.68;2.78;;;23.70;62.70;;;;;;5995794;23;88840;-85
2023/09/29 08:37:24;;;;;;;3.50;2.17;;;23.80;62.80;;;;;;5995263;23;88556;-86
2023/09/29 08:39:50;;;;;;;5.22;2.00;;;23.80;62.70;;;;;;5997151;23;86839;-85
2023/09/29 08:42:36;;;;;;;4.38;1.83;;;23.80;62.60;;;;;;5995732;23;87367;-85
2023/09/29 08:45:09;;;;;;;6.78;2.15;;;23.80;62.60;;;;;;5994263;23;87789;-87
2023/09/29 08:47:40;;;;;;;5.07;2.13;;;23.80;62.60;;;;;;5995509;23;87433;-86
2023/09/29 08:50:08;;;;;;;5.10;2.08;;;23.80;62.60;;;;;;5996266;23;87377;-86
2023/09/29 08:52:35;;;;;;;6.35;2.47;;;23.80;62.50;;;;;;5996040;23;89881;-86
2023/09/29 08:55:05;;;;;;;5.70;2.70;;;23.80;62.50;;;;;;5986516;23;87996;-85
2023/09/29 08:57:30;;;;;;;;;;;23.80;62.50;;;;;;5993462;23;88667;-86
2023/09/29 08:59:56;;;;;;;5.15;2.67;;;23.80;62.40;;;;;;5999838;23;88962;-86
2023/09/29 09:02:26;;;;;;;7.60;2.60;;;23.80;62.80;;;;;;5998147;23;87055;-86
2023/09/29 09:04:52;;;;;;;5.28;2.40;;;23.80;62.30;;;;;;5995975;23;88274;-86
2023/09/29 09:07:19;;;;;;;4.75;2.97;;;23.80;62.50;;;;;;5998756;23;87063;-85
2023/09/29 09:09:57;;;;;;;4.13;2.38;;;23.80;62.50;;;;;;5990914;23;87957;-86
2023/09/29 09:12:34;;;;;;;5.88;2.75;;;23.80;62.60;;;;;;5992166;23;89533;-86
2023/09/29 09:15:00;;;;;;;4.05;2.38;;;23.80;62.60;;;;;;5978592;23;88269;-85
2023/09/29 09:17:25;;;;;;;8.57;2.70;;;23.80;62.60;;;;;;5965622;23;88395;-85
2023/09/29 09:19:51;;;;;;;6.28;2.70;;;23.80;62.80;;;;;;5964897;23;87544;-84
2023/09/29 09:22:22;;;;;;;4.57;2.35;;;23.80;62.80;;;;;;5965835;23;87228;-85
2023/09/29 09:24:48;;;;;;;6.03;2.65;;;23.80;62.60;;;;;;5984282;23;93804;-85
2023/09/29 09:27:14;;;;;;;5.00;2.17;;;23.80;62.60;;;;;;6002403;23;88548;-85
2023/09/29 09:29:43;;;;;;;6.45;2.70;;;23.80;62.80;;;;;;5979107;23;87732;-85
2023/09/29 09:32:10;;;;;;;6.32;3.05;;;23.80;63.00;;;;;;5966934;23;86854;-85
2023/09/29 09:34:37;;;;;;;7.63;3.58;;;23.80;62.90;;;;;;5964432;23;89725;-86
2023/09/29 09:37:06;;;;;;;7.65;2.88;;;23.90;63.00;;;;;;5966173;23;87546;-85
2023/09/29 09:39:42;;;;;;;;;;;23.90;63.00;;;;;;5967299;23;87198;-85
2023/09/29 09:42:10;;;;;;;9.55;2.95;;;23.90;63.20;;;;;;5967935;23;86733;-85
2023/09/29 09:44:38;;;;;;;9.02;2.85;;;23.90;63.60;;;;;;5965830;23;87574;-85
2023/09/29 09:47:10;;;;;;;7.72;3.10;;;23.90;63.50;;;;;;5966416;23;88281;-84
2023/09/29 09:49:44;;;;;;;11.27;3.72;;;23.90;63.60;;;;;;5960713;23;88446;-85
2023/09/29 09:52:15;;;;;;;6.88;3.05;;;23.90;63.50;;;;;;5961334;23;88018;-85
2023/09/29 09:54:52;;;;;;;8.45;3.65;;;23.90;63.50;;;;;;5965418;23;88192;-85
2023/09/29 09:57:34;;;;;;;8.00;3.17;;;23.90;63.50;;;;;;5963057;23;90357;-87
2023/09/29 10:00:10;;;;;;;6.07;2.97;;;23.90;63.80;;;;;;5966057;23;87270;-88
2023/09/29 10:02:45;;;;;;;5.85;2.92;;;23.90;63.60;;;;;;5968284;23;87430;-86
2023/09/29 10:05:25;;;;;;;7.45;3.35;;;24.00;63.70;;;;;;5966342;23;87630;-87
2023/09/29 10:07:51;;;;;;;;;;;24.00;63.80;;;;;;5968006;23;87658;-87
2023/09/29 10:10:37;;;;;;;6.65;3.42;;;23.90;63.70;;;;;;5971303;23;87932;-87
2023/09/29 10:13:06;;;;;;;5.63;2.83;;;24.00;63.80;;;;;;5997159;23;91099;-86
2023/09/29 10:15:32;;;;;;;8.90;3.40;;;23.90;63.70;;;;;;6017357;23;92460;-88
2023/09/29 10:18:17;;;;;;;7.18;3.58;;;24.00;63.80;;;;;;5977571;23;88255;-87
2023/09/29 10:20:45;;;;;;;5.15;3.20;;;24.00;63.70;;;;;;5978902;23;87526;-87
2023/09/29 10:23:14;;;;;;;7.18;3.95;;;23.90;63.50;;;;;;5967199;23;87465;-87
2023/09/29 10:25:55;;;;;;;9.32;3.50;;;23.90;63.40;;;;;;5967091;23;88060;-86
2023/09/29 10:28:30;;;;;;;8.23;3.50;;;24.00;63.60;;;;;;5967419;23;87845;-88
2023/09/29 10:31:15;;;;;;;7.18;3.10;;;24.00;63.70;;;;;;5969213;23;87642;-86
2023/09/29 10:33:51;;;;;;;7.78;3.25;;;24.00;63.90;;;;;;5967970;23;87309;-87
2023/09/29 10:36:19;;;;;;;6.80;3.20;;;24.00;63.70;;;;;;5966917;23;87999;-84
2023/09/29 10:39:05;;;;;;;10.23;3.80;;;24.00;63.60;;;;;;5968119;23;87773;-87
2023/09/29 10:41:32;;;;;;;7.18;3.10;;;24.00;63.70;;;;;;5965899;23;88551;-88
2023/09/29 10:43:59;;;;;;;8.63;3.47;;;24.00;63.90;;;;;;5965153;23;89261;-87
2023/09/29 10:46:25;;;;;;;13.32;4.38;;;24.00;63.90;;;;;;5963745;23;90045;-87
2023/09/29 10:48:53;;;;;;;10.52;3.58;;;24.00;64.00;;;;;;5969238;23;87933;-86
2023/09/29 10:51:27;;;;;;;9.93;3.42;;;24.00;63.80;;;;;;5967891;23;87918;-87
2023/09/29 10:53:53;;;;;;;10.10;4.38;;;24.00;63.70;;;;;;5965358;23;87945;-86
2023/09/29 10:56:21;;;;;;;7.38;3.60;;;24.00;63.90;;;;;;5968109;23;87831;-92
2023/09/29 10:58:49;;;;;;;7.45;3.55;;;24.00;63.80;;;;;;5969645;23;90248;-91
2023/09/29 11:01:33;;;;;;;8.65;3.40;;;24.00;63.80;;;;;;5970310;23;87243;-91
2023/09/29 11:04:02;;;;;;;10.60;3.55;;;24.00;63.80;;;;;;5998445;23;91090;-92
2023/09/29 11:06:28;;;;;;;7.63;3.43;;;23.90;63.70;;;;;;5995358;23;90491;-91
2023/09/29 11:08:56;;;;;;;8.60;3.40;;;24.00;63.90;;;;;;5967019;23;89788;-89
2023/09/29 11:11:25;;;;;;;8.90;3.37;;;24.00;64.00;;;;;;5962454;23;87109;-92
2023/09/29 11:13:57;;;;;;;11.85;3.70;;;24.00;64.00;;;;;;5968969;23;88220;-93
2023/09/29 11:16:28;;;;;;;11.48;3.60;;;24.00;64.10;;;;;;5967809;23;90746;-93
2023/09/29 11:19:15;;;;;;;7.28;3.25;;;24.00;64.10;;;;;;5969049;23;88789;-92
2023/09/29 11:21:41;;;;;;;7.55;3.10;;;24.00;64.40;;;;;;5968497;23;87148;-92
2023/09/29 11:24:09;;;;;;;7.72;3.13;;;24.00;63.90;;;;;;5970755;23;87210;-91
2023/09/29 11:26:41;;;;;;;6.50;2.83;;;24.00;64.60;;;;;;5969730;23;87665;-91
2023/09/29 11:29:11;;;;;;;7.82;2.85;;;24.00;64.40;;;;;;5967778;23;89295;-91
2023/09/29 11:31:38;;;;;;;9.30;3.20;;;24.00;64.50;;;;;;5956146;23;88277;-94
2023/09/29 11:34:06;;;;;;;7.85;3.17;;;24.00;64.40;;;;;;5970943;23;87669;-94
2023/09/29 11:36:33;;;;;;;6.97;3.15;;;24.00;64.70;;;;;;5954638;23;90138;-92
2023/09/29 11:38:59;;;;;;;7.93;3.40;;;24.00;65.00;;;;;;5955029;23;90122;-95
2023/09/29 11:41:25;;;;;;;6.03;2.92;;;24.00;65.00;;;;;;5969073;23;87220;-95
2023/09/29 11:43:50;;;;;;;8.80;2.67;;;24.00;65.10;;;;;;5968294;23;89587;-91
2023/09/29 11:46:16;;;;;;;7.40;3.63;;;24.00;64.80;;;;;;5968618;23;90294;-91
2023/09/29 11:49:03;;;;;;;7.65;2.72;;;24.00;65.10;;;;;;5968534;23;90057;-91
2023/09/29 11:51:28;;;;;;;4.47;2.35;;;24.00;65.10;;;;;;5970437;23;87599;-94
2023/09/29 11:53:54;;;;;;;6.55;2.60;;;24.00;65.10;;;;;;5960083;23;89422;-90
2023/09/29 11:56:20;;;;;;;6.07;2.70;;;24.00;65.20;;;;;;5973759;23;88751;-93
2023/09/29 11:58:46;;;;;;;5.65;2.58;;;24.00;65.00;;;;;;5959871;23;90315;-91
2023/09/29 12:01:13;;;;;;;5.55;2.80;;;24.00;65.10;;;;;;5968993;23;88319;-92
2023/09/29 12:03:40;;;;;;;5.43;2.47;;;24.00;65.30;;;;;;5966601;23;88080;-91
2023/09/29 12:06:06;;;;;;;5.47;2.40;;;24.00;65.40;;;;;;5967871;23;90496;-91
2023/09/29 12:08:31;;;;;;;4.55;2.20;;;24.00;65.40;;;;;;5966606;23;90168;-91
2023/09/29 12:10:58;;;;;;;6.85;2.63;;;24.00;65.40;;;;;;5969296;23;86886;-92
2023/09/29 12:13:25;;;;;;;5.43;2.83;;;24.00;65.60;;;;;;5969464;23;86291;-89
2023/09/29 12:15:51;;;;;;;6.18;2.75;;;24.10;65.40;;;;;;5966728;23;90320;-90
2023/09/29 12:18:17;;;;;;;7.22;3.08;;;24.00;65.30;;;;;;5966074;23;89470;-88
2023/09/29 12:20:43;;;;;;;5.03;2.88;;;24.10;65.80;;;;;;5969772;23;88113;-89
2023/09/29 12:23:18;;;;;;;6.43;2.67;;;24.10;65.90;;;;;;5966817;23;87951;-88
2023/09/29 12:25:44;;;;;;;6.25;3.00;;;24.10;65.50;;;;;;5966920;23;90384;-88
2023/09/29 12:28:10;;;;;;;7.07;2.33;;;24.10;65.70;;;;;;5969470;23;87784;-88
2023/09/29 12:30:35;;;;;;;6.93;2.70;;;24.10;65.70;;;;;;5965729;23;87370;-90
2023/09/29 12:33:01;;;;;;;5.15;2.40;;;24.10;65.40;;;;;;5964296;23;87252;-89
2023/09/29 12:35:27;;;;;;;9.00;2.63;;;24.10;65.70;;;;;;5968850;23;90757;-90
2023/09/29 12:37:53;;;;;;;7.32;3.45;;;24.10;65.80;;;;;;5959640;23;88899;-88
2023/09/29 12:40:18;;;;;;;4.13;2.10;;;24.10;65.30;;;;;;5987110;23;87263;-86
2023/09/29 12:42:49;;;;;;;8.32;2.78;;;24.10;65.60;;;;;;5995039;23;93659;-88
2023/09/29 12:45:23;;;;;;;6.03;2.78;;;24.10;65.50;;;;;;5997987;23;88781;-88
2023/09/29 12:47:50;;;;;;;7.47;2.67;;;24.10;65.70;;;;;;5978840;23;91463;-87
2023/09/29 12:50:17;;;;;;;4.38;2.33;;;24.10;65.60;;;;;;5959243;23;87584;-89
2023/09/29 12:52:54;;;;;;;6.78;2.80;;;24.10;65.10;;;;;;5979101;23;87443;-93